Wichita, KS (67223)

7:28 AM CDT on July 25, 2016 (GMT -0500)
Teal Brook Estates | | Change Station

Elev 1362 ft 37.72 °N, 97.49 °W | Updated 18 seconds ago

Rain
Rain Mist
73.2 °F
Feels Like 73.2 °F
N
5.6
Wind Variable Wind from SSW
Gusts 12.3 mph

Today
High -- | Low -- °F
--% Chance of Precip.
Yesterday
High -- | Low -- °F
Precip. -- in
Pressure 30.05 in
Visibility 6.0 miles
Clouds Scattered Clouds 800 ft
Mostly Cloudy 11000 ft
Overcast 15000 ft
Dew Point 71 °F
Humidity 94%
Rainfall 0.25 in
Snow Depth Not available.
6:28 AM 8:44 PM
Waning Gibbous, 66% visible
SPECI KICT 251222Z 03018G27KT 6SM RA BR SCT008 BKN110 OVC150 23/21 A3005 RMK AO2 PK WND 03027/1217 OCNL LTGICCC DSNT NE-SE CB DSNT NE-SE MOV NE P0005 T02280211
Pressure 30.05 in
Visibility 6.0 miles
Clouds Scattered Clouds 800 ft
Mostly Cloudy 11000 ft
Overcast 15000 ft
Dew Point 71 °F
Humidity 94%
Rainfall 0.25 in
Snow Depth Not available.
6:28 AM 8:44 PM
Waning Gibbous, 66% visible
SPECI KICT 251222Z 03018G27KT 6SM RA BR SCT008 BKN110 OVC150 23/21 A3005 RMK AO2 PK WND 03027/1217 OCNL LTGICCC DSNT NE-SE CB DSNT NE-SE MOV NE P0005 T02280211

10-Day Weather Forecast

Almanac

Astronomy

Jul. 25, 2016 Rise Set
Actual Time
Civil Twilight
Nautical Twilight
Astronomical Twilight
Moon
Length of Visible Light
Length of Day
Tomorrow will be .
, % of the Moon is Illuminated

Today's Extremes

State Highs State Lows

Community

WunderPhotos

Upload Photos

1,927,295 photos uploaded!

WunderBlog® & News

Nearby

Air Quality

  Air Quality AQ Index Pollutant
Not available.

Snow Depth

Station Depth Elevation

Earthquake Activity

City Distance Mag. Time & Date
Minimum magnitude displayed is 2.5.

Coastal Water Temperatures

Place Temperature

Stations

Nearby Weather Stations

Station Location Temp. Windchill Dew Point Humidity Wind Precip. Elev Updated Type
                   

Watches & Warnings

There are currently no watches in effect.